sensor_id;sensor_type;location;lat;lon;timestamp;P1;durP1;ratioP1;P2;durP2;ratioP2
40953;SDS011;26686;50.130;8.710;2023-06-10T00:01:24;7.22;;;6.50;;
40953;SDS011;26686;50.130;8.710;2023-06-10T00:06:26;7.22;;;6.43;;
40953;SDS011;26686;50.130;8.710;2023-06-10T00:11:30;6.95;;;5.90;;
40953;SDS011;26686;50.130;8.710;2023-06-10T00:16:34;7.22;;;6.63;;
40953;SDS011;26686;50.130;8.710;2023-06-10T00:21:37;6.82;;;6.10;;
40953;SDS011;26686;50.130;8.710;2023-06-10T00:26:41;7.35;;;6.63;;
40953;SDS011;26686;50.130;8.710;2023-06-10T00:31:44;6.43;;;5.93;;
40953;SDS011;26686;50.130;8.710;2023-06-10T00:41:48;6.15;;;5.65;;
40953;SDS011;26686;50.130;8.710;2023-06-10T00:46:49;7.50;;;6.40;;
40953;SDS011;26686;50.130;8.710;2023-06-10T00:51:52;7.50;;;6.82;;
40953;SDS011;26686;50.130;8.710;2023-06-10T00:56:54;6.78;;;5.97;;
40953;SDS011;26686;50.130;8.710;2023-06-10T01:01:57;7.43;;;6.47;;
40953;SDS011;26686;50.130;8.710;2023-06-10T01:12:32;6.22;;;5.63;;
40953;SDS011;26686;50.130;8.710;2023-06-10T01:17:56;6.57;;;5.88;;
40953;SDS011;26686;50.130;8.710;2023-06-10T01:23:00;7.10;;;6.50;;
40953;SDS011;26686;50.130;8.710;2023-06-10T01:28:05;9.52;;;5.82;;
40953;SDS011;26686;50.130;8.710;2023-06-10T01:33:11;7.00;;;6.30;;
40953;SDS011;26686;50.130;8.710;2023-06-10T01:38:15;8.05;;;6.88;;
40953;SDS011;26686;50.130;8.710;2023-06-10T01:43:19;6.50;;;6.00;;
40953;SDS011;26686;50.130;8.710;2023-06-10T01:48:22;6.43;;;5.82;;
40953;SDS011;26686;50.130;8.710;2023-06-10T01:53:23;7.60;;;6.85;;
40953;SDS011;26686;50.130;8.710;2023-06-10T01:58:25;7.45;;;6.70;;
40953;SDS011;26686;50.130;8.710;2023-06-10T02:03:26;7.63;;;6.72;;
40953;SDS011;26686;50.130;8.710;2023-06-10T02:08:28;8.80;;;6.65;;
40953;SDS011;26686;50.130;8.710;2023-06-10T02:13:30;6.28;;;5.75;;
40953;SDS011;26686;50.130;8.710;2023-06-10T02:18:31;6.47;;;5.88;;
40953;SDS011;26686;50.130;8.710;2023-06-10T02:23:34;6.65;;;6.03;;
40953;SDS011;26686;50.130;8.710;2023-06-10T02:28:36;6.22;;;5.70;;
40953;SDS011;26686;50.130;8.710;2023-06-10T02:33:37;6.50;;;6.00;;
40953;SDS011;26686;50.130;8.710;2023-06-10T02:38:41;6.57;;;5.97;;
40953;SDS011;26686;50.130;8.710;2023-06-10T02:43:43;6.68;;;6.18;;
40953;SDS011;26686;50.130;8.710;2023-06-10T02:48:45;7.18;;;5.97;;
40953;SDS011;26686;50.130;8.710;2023-06-10T02:53:47;6.40;;;5.87;;
40953;SDS011;26686;50.130;8.710;2023-06-10T02:58:49;7.88;;;7.18;;
40953;SDS011;26686;50.130;8.710;2023-06-10T03:03:53;6.65;;;6.05;;
40953;SDS011;26686;50.130;8.710;2023-06-10T03:08:54;6.80;;;6.20;;
40953;SDS011;26686;50.130;8.710;2023-06-10T03:13:56;7.00;;;6.20;;
40953;SDS011;26686;50.130;8.710;2023-06-10T03:18:58;7.03;;;6.32;;
40953;SDS011;26686;50.130;8.710;2023-06-10T03:24:00;7.10;;;6.38;;
40953;SDS011;26686;50.130;8.710;2023-06-10T03:29:02;6.70;;;6.10;;
40953;SDS011;26686;50.130;8.710;2023-06-10T03:34:03;7.07;;;6.38;;
40953;SDS011;26686;50.130;8.710;2023-06-10T03:39:05;7.00;;;6.40;;
40953;SDS011;26686;50.130;8.710;2023-06-10T03:44:06;7.10;;;6.50;;
40953;SDS011;26686;50.130;8.710;2023-06-10T03:49:08;5.82;;;5.35;;
40953;SDS011;26686;50.130;8.710;2023-06-10T03:54:10;5.70;;;5.28;;
40953;SDS011;26686;50.130;8.710;2023-06-10T03:59:12;5.28;;;4.78;;
40953;SDS011;26686;50.130;8.710;2023-06-10T04:04:14;5.90;;;5.20;;
40953;SDS011;26686;50.130;8.710;2023-06-10T04:09:17;6.40;;;5.80;;
40953;SDS011;26686;50.130;8.710;2023-06-10T04:14:19;7.07;;;5.75;;
40953;SDS011;26686;50.130;8.710;2023-06-10T04:19:20;6.13;;;5.53;;
40953;SDS011;26686;50.130;8.710;2023-06-10T04:24:22;6.50;;;5.97;;
40953;SDS011;26686;50.130;8.710;2023-06-10T04:29:24;6.68;;;5.65;;
40953;SDS011;26686;50.130;8.710;2023-06-10T04:34:25;7.40;;;6.15;;
40953;SDS011;26686;50.130;8.710;2023-06-10T04:39:27;7.95;;;5.53;;
40953;SDS011;26686;50.130;8.710;2023-06-10T04:44:30;5.60;;;5.18;;
40953;SDS011;26686;50.130;8.710;2023-06-10T04:49:32;7.22;;;5.95;;
40953;SDS011;26686;50.130;8.710;2023-06-10T04:54:34;5.43;;;5.03;;
40953;SDS011;26686;50.130;8.710;2023-06-10T04:59:36;7.38;;;5.72;;
40953;SDS011;26686;50.130;8.710;2023-06-10T05:04:39;5.97;;;5.20;;
40953;SDS011;26686;50.130;8.710;2023-06-10T05:09:40;6.18;;;5.07;;
40953;SDS011;26686;50.130;8.710;2023-06-10T05:14:42;7.68;;;5.90;;
40953;SDS011;26686;50.130;8.710;2023-06-10T05:19:43;6.03;;;5.38;;
40953;SDS011;26686;50.130;8.710;2023-06-10T05:24:45;5.55;;;5.05;;
40953;SDS011;26686;50.130;8.710;2023-06-10T05:29:48;5.50;;;5.00;;
40953;SDS011;26686;50.130;8.710;2023-06-10T05:34:51;5.35;;;4.85;;
40953;SDS011;26686;50.130;8.710;2023-06-10T05:39:52;5.38;;;4.88;;
40953;SDS011;26686;50.130;8.710;2023-06-10T05:44:54;6.38;;;5.78;;
40953;SDS011;26686;50.130;8.710;2023-06-10T05:49:56;5.88;;;5.28;;
40953;SDS011;26686;50.130;8.710;2023-06-10T05:54:57;5.55;;;5.15;;
40953;SDS011;26686;50.130;8.710;2023-06-10T06:00:00;5.85;;;5.25;;
40953;SDS011;26686;50.130;8.710;2023-06-10T06:05:02;6.70;;;5.35;;
40953;SDS011;26686;50.130;8.710;2023-06-10T06:10:04;5.50;;;5.00;;
40953;SDS011;26686;50.130;8.710;2023-06-10T06:15:06;6.03;;;5.20;;
40953;SDS011;26686;50.130;8.710;2023-06-10T06:20:10;6.05;;;5.40;;
40953;SDS011;26686;50.130;8.710;2023-06-10T06:25:12;5.75;;;4.82;;
40953;SDS011;26686;50.130;8.710;2023-06-10T06:30:14;7.07;;;5.65;;
40953;SDS011;26686;50.130;8.710;2023-06-10T06:35:16;5.70;;;5.20;;
40953;SDS011;26686;50.130;8.710;2023-06-10T06:40:18;5.30;;;4.80;;
40953;SDS011;26686;50.130;8.710;2023-06-10T06:45:19;5.95;;;5.45;;
40953;SDS011;26686;50.130;8.710;2023-06-10T06:50:22;6.35;;;5.82;;
40953;SDS011;26686;50.130;8.710;2023-06-10T06:55:23;6.28;;;5.68;;
40953;SDS011;26686;50.130;8.710;2023-06-10T07:00:25;7.72;;;5.40;;
40953;SDS011;26686;50.130;8.710;2023-06-10T07:05:26;5.53;;;5.00;;
40953;SDS011;26686;50.130;8.710;2023-06-10T07:10:28;6.03;;;4.78;;
40953;SDS011;26686;50.130;8.710;2023-06-10T07:15:30;5.65;;;5.15;;
40953;SDS011;26686;50.130;8.710;2023-06-10T07:20:32;5.22;;;4.72;;
40953;SDS011;26686;50.130;8.710;2023-06-10T07:25:34;6.10;;;5.60;;
40953;SDS011;26686;50.130;8.710;2023-06-10T07:30:37;6.32;;;4.82;;
40953;SDS011;26686;50.130;8.710;2023-06-10T07:35:38;5.45;;;5.00;;
40953;SDS011;26686;50.130;8.710;2023-06-10T07:40:40;5.80;;;4.90;;
40953;SDS011;26686;50.130;8.710;2023-06-10T07:45:42;5.78;;;5.20;;
40953;SDS011;26686;50.130;8.710;2023-06-10T07:50:44;8.15;;;5.53;;
40953;SDS011;26686;50.130;8.710;2023-06-10T07:55:46;5.82;;;4.90;;
40953;SDS011;26686;50.130;8.710;2023-06-10T08:00:48;5.85;;;5.45;;
40953;SDS011;26686;50.130;8.710;2023-06-10T08:05:49;6.13;;;5.45;;
40953;SDS011;26686;50.130;8.710;2023-06-10T08:10:51;5.75;;;5.28;;
40953;SDS011;26686;50.130;8.710;2023-06-10T08:15:53;6.10;;;5.47;;
40953;SDS011;26686;50.130;8.710;2023-06-10T08:25:58;5.05;;;4.55;;
40953;SDS011;26686;50.130;8.710;2023-06-10T08:30:59;6.35;;;5.05;;
40953;SDS011;26686;50.130;8.710;2023-06-10T08:36:01;6.30;;;5.30;;
40953;SDS011;26686;50.130;8.710;2023-06-10T08:41:03;7.43;;;5.33;;
40953;SDS011;26686;50.130;8.710;2023-06-10T08:46:07;8.60;;;5.65;;
40953;SDS011;26686;50.130;8.710;2023-06-10T08:51:10;6.13;;;4.40;;
40953;SDS011;26686;50.130;8.710;2023-06-10T08:56:12;5.00;;;4.57;;
40953;SDS011;26686;50.130;8.710;2023-06-10T09:01:15;4.93;;;4.45;;
40953;SDS011;26686;50.130;8.710;2023-06-10T09:06:18;5.80;;;5.30;;
40953;SDS011;26686;50.130;8.710;2023-06-10T09:11:21;6.47;;;4.47;;
40953;SDS011;26686;50.130;8.710;2023-06-10T09:16:23;6.07;;;4.27;;
40953;SDS011;26686;50.130;8.710;2023-06-10T09:21:28;7.43;;;4.93;;
40953;SDS011;26686;50.130;8.710;2023-06-10T09:26:30;5.20;;;4.83;;
40953;SDS011;26686;50.130;8.710;2023-06-10T09:31:34;5.72;;;4.72;;
40953;SDS011;26686;50.130;8.710;2023-06-10T09:36:37;6.40;;;5.15;;
40953;SDS011;26686;50.130;8.710;2023-06-10T09:41:39;4.97;;;4.55;;
40953;SDS011;26686;50.130;8.710;2023-06-10T09:46:42;5.45;;;4.57;;
40953;SDS011;26686;50.130;8.710;2023-06-10T09:51:49;5.15;;;4.30;;
40953;SDS011;26686;50.130;8.710;2023-06-10T09:56:53;5.15;;;4.75;;
40953;SDS011;26686;50.130;8.710;2023-06-10T10:01:55;5.77;;;4.33;;
40953;SDS011;26686;50.130;8.710;2023-06-10T10:12:01;4.68;;;4.28;;
40953;SDS011;26686;50.130;8.710;2023-06-10T10:17:04;4.50;;;4.00;;
40953;SDS011;26686;50.130;8.710;2023-06-10T10:22:08;5.45;;;4.03;;
40953;SDS011;26686;50.130;8.710;2023-06-10T10:27:40;6.43;;;4.63;;
40953;SDS011;26686;50.130;8.710;2023-06-10T10:32:58;4.78;;;4.03;;
40953;SDS011;26686;50.130;8.710;2023-06-10T10:38:10;4.75;;;3.58;;
40953;SDS011;26686;50.130;8.710;2023-06-10T10:43:12;3.47;;;3.17;;
40953;SDS011;26686;50.130;8.710;2023-06-10T10:48:15;5.18;;;3.60;;
40953;SDS011;26686;50.130;8.710;2023-06-10T10:53:19;4.70;;;4.32;;
40953;SDS011;26686;50.130;8.710;2023-06-10T10:58:23;3.95;;;3.65;;
40953;SDS011;26686;50.130;8.710;2023-06-10T11:03:29;4.45;;;3.60;;
40953;SDS011;26686;50.130;8.710;2023-06-10T11:13:35;6.53;;;3.80;;
40953;SDS011;26686;50.130;8.710;2023-06-10T11:18:39;5.03;;;3.90;;
40953;SDS011;26686;50.130;8.710;2023-06-10T11:23:41;4.32;;;3.95;;
40953;SDS011;26686;50.130;8.710;2023-06-10T11:33:53;4.20;;;3.80;;
40953;SDS011;26686;50.130;8.710;2023-06-10T11:38:59;4.15;;;3.67;;
40953;SDS011;26686;50.130;8.710;2023-06-10T11:44:03;4.82;;;3.83;;
40953;SDS011;26686;50.130;8.710;2023-06-10T11:49:05;4.88;;;3.10;;
40953;SDS011;26686;50.130;8.710;2023-06-10T11:54:08;3.72;;;3.17;;
40953;SDS011;26686;50.130;8.710;2023-06-10T11:59:10;3.83;;;3.40;;
40953;SDS011;26686;50.130;8.710;2023-06-10T12:04:12;3.67;;;3.35;;
40953;SDS011;26686;50.130;8.710;2023-06-10T12:20:06;4.32;;;3.80;;
40953;SDS011;26686;50.130;8.710;2023-06-10T12:25:10;4.60;;;3.47;;
40953;SDS011;26686;50.130;8.710;2023-06-10T12:30:18;3.97;;;3.47;;
40953;SDS011;26686;50.130;8.710;2023-06-10T12:35:22;4.28;;;3.75;;
40953;SDS011;26686;50.130;8.710;2023-06-10T12:40:27;4.18;;;3.50;;
40953;SDS011;26686;50.130;8.710;2023-06-10T12:45:37;3.88;;;3.55;;
40953;SDS011;26686;50.130;8.710;2023-06-10T12:50:56;5.45;;;3.53;;
40953;SDS011;26686;50.130;8.710;2023-06-10T12:55:58;4.18;;;3.88;;
40953;SDS011;26686;50.130;8.710;2023-06-10T13:01:01;4.30;;;3.90;;
40953;SDS011;26686;50.130;8.710;2023-06-10T13:06:03;4.80;;;4.05;;
40953;SDS011;26686;50.130;8.710;2023-06-10T13:11:07;6.50;;;3.90;;
40953;SDS011;26686;50.130;8.710;2023-06-10T13:16:09;6.22;;;3.92;;
40953;SDS011;26686;50.130;8.710;2023-06-10T13:21:10;4.05;;;3.17;;
40953;SDS011;26686;50.130;8.710;2023-06-10T13:26:12;4.38;;;3.58;;
40953;SDS011;26686;50.130;8.710;2023-06-10T13:31:14;4.07;;;3.30;;
40953;SDS011;26686;50.130;8.710;2023-06-10T13:36:16;4.70;;;4.28;;
40953;SDS011;26686;50.130;8.710;2023-06-10T13:41:17;3.90;;;3.50;;
40953;SDS011;26686;50.130;8.710;2023-06-10T13:46:19;5.28;;;3.60;;
40953;SDS011;26686;50.130;8.710;2023-06-10T13:51:22;5.50;;;3.20;;
40953;SDS011;26686;50.130;8.710;2023-06-10T13:56:24;3.60;;;3.28;;
40953;SDS011;26686;50.130;8.710;2023-06-10T14:01:27;3.63;;;3.20;;
40953;SDS011;26686;50.130;8.710;2023-06-10T14:06:29;3.58;;;3.20;;
40953;SDS011;26686;50.130;8.710;2023-06-10T14:11:31;2.65;;;2.45;;
40953;SDS011;26686;50.130;8.710;2023-06-10T14:16:35;2.97;;;2.78;;
40953;SDS011;26686;50.130;8.710;2023-06-10T14:21:37;3.70;;;2.78;;
40953;SDS011;26686;50.130;8.710;2023-06-10T14:26:38;3.17;;;2.88;;
40953;SDS011;26686;50.130;8.710;2023-06-10T14:31:40;2.60;;;2.40;;
40953;SDS011;26686;50.130;8.710;2023-06-10T14:36:42;7.88;;;3.25;;
40953;SDS011;26686;50.130;8.710;2023-06-10T14:46:45;3.40;;;2.80;;
40953;SDS011;26686;50.130;8.710;2023-06-10T14:51:47;3.25;;;2.95;;
40953;SDS011;26686;50.130;8.710;2023-06-10T14:56:53;3.13;;;2.90;;
40953;SDS011;26686;50.130;8.710;2023-06-10T15:01:54;3.67;;;3.38;;
40953;SDS011;26686;50.130;8.710;2023-06-10T15:06:56;2.85;;;2.65;;
40953;SDS011;26686;50.130;8.710;2023-06-10T15:11:58;3.92;;;3.63;;
40953;SDS011;26686;50.130;8.710;2023-06-10T15:17:00;3.85;;;3.55;;
40953;SDS011;26686;50.130;8.710;2023-06-10T15:22:02;3.13;;;2.93;;
40953;SDS011;26686;50.130;8.710;2023-06-10T15:27:04;2.75;;;2.55;;
40953;SDS011;26686;50.130;8.710;2023-06-10T15:32:06;3.72;;;3.38;;
40953;SDS011;26686;50.130;8.710;2023-06-10T15:37:07;2.70;;;2.50;;
40953;SDS011;26686;50.130;8.710;2023-06-10T15:42:09;5.27;;;3.37;;
40953;SDS011;26686;50.130;8.710;2023-06-10T15:47:12;4.07;;;2.85;;
40953;SDS011;26686;50.130;8.710;2023-06-10T15:52:13;3.90;;;2.90;;
40953;SDS011;26686;50.130;8.710;2023-06-10T15:57:16;3.20;;;2.65;;
40953;SDS011;26686;50.130;8.710;2023-06-10T16:02:17;3.67;;;2.60;;
40953;SDS011;26686;50.130;8.710;2023-06-10T16:07:19;4.57;;;2.70;;
40953;SDS011;26686;50.130;8.710;2023-06-10T16:12:20;3.55;;;2.35;;
40953;SDS011;26686;50.130;8.710;2023-06-10T16:17:22;2.97;;;2.67;;
40953;SDS011;26686;50.130;8.710;2023-06-10T16:22:24;3.75;;;3.33;;
40953;SDS011;26686;50.130;8.710;2023-06-10T16:27:26;5.97;;;3.73;;
40953;SDS011;26686;50.130;8.710;2023-06-10T16:32:27;3.80;;;2.80;;
40953;SDS011;26686;50.130;8.710;2023-06-10T16:37:29;4.70;;;2.87;;
40953;SDS011;26686;50.130;8.710;2023-06-10T16:42:30;4.93;;;3.00;;
40953;SDS011;26686;50.130;8.710;2023-06-10T16:47:33;3.58;;;3.17;;
40953;SDS011;26686;50.130;8.710;2023-06-10T16:52:36;4.57;;;3.65;;
40953;SDS011;26686;50.130;8.710;2023-06-10T16:57:37;3.53;;;3.30;;
40953;SDS011;26686;50.130;8.710;2023-06-10T17:02:39;3.95;;;3.08;;
40953;SDS011;26686;50.130;8.710;2023-06-10T17:07:40;3.47;;;3.17;;
40953;SDS011;26686;50.130;8.710;2023-06-10T17:12:42;5.00;;;3.83;;
40953;SDS011;26686;50.130;8.710;2023-06-10T17:17:43;3.88;;;3.58;;
40953;SDS011;26686;50.130;8.710;2023-06-10T17:22:45;4.50;;;4.00;;
40953;SDS011;26686;50.130;8.710;2023-06-10T17:27:46;4.77;;;4.33;;
40953;SDS011;26686;50.130;8.710;2023-06-10T17:32:49;7.55;;;4.97;;
40953;SDS011;26686;50.130;8.710;2023-06-10T17:37:51;6.30;;;4.43;;
40953;SDS011;26686;50.130;8.710;2023-06-10T17:42:52;4.68;;;4.28;;
40953;SDS011;26686;50.130;8.710;2023-06-10T17:47:54;5.07;;;4.53;;
40953;SDS011;26686;50.130;8.710;2023-06-10T17:52:56;5.10;;;4.70;;
40953;SDS011;26686;50.130;8.710;2023-06-10T17:57:57;8.07;;;6.27;;
40953;SDS011;26686;50.130;8.710;2023-06-10T18:02:59;5.80;;;5.30;;
40953;SDS011;26686;50.130;8.710;2023-06-10T18:08:02;6.50;;;5.90;;
40953;SDS011;26686;50.130;8.710;2023-06-10T18:13:03;9.63;;;8.30;;
40953;SDS011;26686;50.130;8.710;2023-06-10T18:18:05;6.73;;;5.97;;
40953;SDS011;26686;50.130;8.710;2023-06-10T18:23:07;5.45;;;4.95;;
40953;SDS011;26686;50.130;8.710;2023-06-10T18:28:08;7.72;;;5.03;;
40953;SDS011;26686;50.130;8.710;2023-06-10T18:33:10;5.25;;;4.75;;
40953;SDS011;26686;50.130;8.710;2023-06-10T18:38:11;4.97;;;4.38;;
40953;SDS011;26686;50.130;8.710;2023-06-10T18:43:12;4.75;;;4.30;;
40953;SDS011;26686;50.130;8.710;2023-06-10T18:48:14;5.03;;;4.63;;
40953;SDS011;26686;50.130;8.710;2023-06-10T18:53:16;4.27;;;3.93;;
40953;SDS011;26686;50.130;8.710;2023-06-10T18:58:18;4.60;;;4.00;;
40953;SDS011;26686;50.130;8.710;2023-06-10T19:03:19;4.72;;;4.43;;
40953;SDS011;26686;50.130;8.710;2023-06-10T19:08:21;5.37;;;4.43;;
40953;SDS011;26686;50.130;8.710;2023-06-10T19:13:23;5.27;;;4.80;;
40953;SDS011;26686;50.130;8.710;2023-06-10T19:18:26;5.28;;;4.78;;
40953;SDS011;26686;50.130;8.710;2023-06-10T19:23:28;4.85;;;4.40;;
40953;SDS011;26686;50.130;8.710;2023-06-10T19:28:30;5.00;;;4.60;;
40953;SDS011;26686;50.130;8.710;2023-06-10T19:33:31;5.57;;;5.00;;
40953;SDS011;26686;50.130;8.710;2023-06-10T19:38:33;5.68;;;4.95;;
40953;SDS011;26686;50.130;8.710;2023-06-10T19:43:34;5.80;;;5.03;;
40953;SDS011;26686;50.130;8.710;2023-06-10T19:48:37;5.97;;;5.47;;
40953;SDS011;26686;50.130;8.710;2023-06-10T19:53:38;6.95;;;5.88;;
40953;SDS011;26686;50.130;8.710;2023-06-10T19:58:40;5.68;;;5.20;;
40953;SDS011;26686;50.130;8.710;2023-06-10T20:03:42;5.07;;;4.68;;
40953;SDS011;26686;50.130;8.710;2023-06-10T20:08:44;5.82;;;4.70;;
40953;SDS011;26686;50.130;8.710;2023-06-10T20:13:46;5.07;;;4.57;;
40953;SDS011;26686;50.130;8.710;2023-06-10T20:18:50;6.32;;;5.70;;
40953;SDS011;26686;50.130;8.710;2023-06-10T20:23:52;5.25;;;4.80;;
40953;SDS011;26686;50.130;8.710;2023-06-10T20:28:54;5.20;;;4.70;;
40953;SDS011;26686;50.130;8.710;2023-06-10T20:33:58;5.15;;;4.65;;
40953;SDS011;26686;50.130;8.710;2023-06-10T20:38:59;6.38;;;5.38;;
40953;SDS011;26686;50.130;8.710;2023-06-10T20:44:01;5.55;;;4.82;;
40953;SDS011;26686;50.130;8.710;2023-06-10T20:49:02;5.78;;;5.05;;
40953;SDS011;26686;50.130;8.710;2023-06-10T20:54:04;5.03;;;4.68;;
40953;SDS011;26686;50.130;8.710;2023-06-10T20:59:05;5.57;;;5.18;;
40953;SDS011;26686;50.130;8.710;2023-06-10T21:04:07;5.32;;;4.82;;
40953;SDS011;26686;50.130;8.710;2023-06-10T21:09:08;5.40;;;4.90;;
40953;SDS011;26686;50.130;8.710;2023-06-10T21:14:10;5.40;;;4.85;;
40953;SDS011;26686;50.130;8.710;2023-06-10T21:19:11;5.38;;;4.97;;
40953;SDS011;26686;50.130;8.710;2023-06-10T21:24:13;5.88;;;4.55;;
40953;SDS011;26686;50.130;8.710;2023-06-10T21:29:15;5.57;;;5.07;;
40953;SDS011;26686;50.130;8.710;2023-06-10T21:34:16;5.72;;;5.20;;
40953;SDS011;26686;50.130;8.710;2023-06-10T21:39:18;5.47;;;4.72;;
40953;SDS011;26686;50.130;8.710;2023-06-10T21:44:19;5.32;;;4.93;;
40953;SDS011;26686;50.130;8.710;2023-06-10T21:49:21;6.80;;;6.10;;
40953;SDS011;26686;50.130;8.710;2023-06-10T21:54:23;5.60;;;5.13;;
40953;SDS011;26686;50.130;8.710;2023-06-10T21:59:24;5.57;;;5.07;;
40953;SDS011;26686;50.130;8.710;2023-06-10T22:04:26;6.30;;;5.22;;
40953;SDS011;26686;50.130;8.710;2023-06-10T22:09:27;5.25;;;4.75;;
40953;SDS011;26686;50.130;8.710;2023-06-10T22:14:29;4.93;;;4.53;;
40953;SDS011;26686;50.130;8.710;2023-06-10T22:19:31;5.78;;;5.28;;
40953;SDS011;26686;50.130;8.710;2023-06-10T22:24:32;5.88;;;5.40;;
40953;SDS011;26686;50.130;8.710;2023-06-10T22:29:34;6.55;;;4.80;;
40953;SDS011;26686;50.130;8.710;2023-06-10T22:34:36;6.30;;;5.40;;
40953;SDS011;26686;50.130;8.710;2023-06-10T22:39:38;5.90;;;5.47;;
40953;SDS011;26686;50.130;8.710;2023-06-10T22:44:39;5.30;;;4.88;;
40953;SDS011;26686;50.130;8.710;2023-06-10T22:49:41;6.22;;;5.45;;
40953;SDS011;26686;50.130;8.710;2023-06-10T22:54:43;5.93;;;5.38;;
40953;SDS011;26686;50.130;8.710;2023-06-10T22:59:44;5.75;;;5.25;;
40953;SDS011;26686;50.130;8.710;2023-06-10T23:04:48;5.43;;;4.97;;
40953;SDS011;26686;50.130;8.710;2023-06-10T23:09:49;5.47;;;5.03;;
40953;SDS011;26686;50.130;8.710;2023-06-10T23:14:53;6.60;;;6.00;;
40953;SDS011;26686;50.130;8.710;2023-06-10T23:19:54;5.63;;;5.10;;
40953;SDS011;26686;50.130;8.710;2023-06-10T23:24:58;5.43;;;5.03;;
40953;SDS011;26686;50.130;8.710;2023-06-10T23:30:01;5.68;;;5.18;;
40953;SDS011;26686;50.130;8.710;2023-06-10T23:35:03;5.25;;;4.82;;
40953;SDS011;26686;50.130;8.710;2023-06-10T23:40:05;5.53;;;5.10;;
40953;SDS011;26686;50.130;8.710;2023-06-10T23:45:07;6.43;;;5.80;;
40953;SDS011;26686;50.130;8.710;2023-06-10T23:50:09;5.43;;;4.90;;
40953;SDS011;26686;50.130;8.710;2023-06-10T23:55:11;6.07;;;5.47;;
